createdAt,value
2023-02-25T00:01:42.840Z,7.94
2023-02-25T00:12:09.664Z,7.90
2023-02-25T00:22:35.862Z,8.10
2023-02-25T00:33:00.132Z,8.26
2023-02-25T00:43:24.309Z,8.46
2023-02-25T00:53:48.528Z,8.39
2023-02-25T01:04:12.802Z,8.15
2023-02-25T01:14:37.580Z,8.29
2023-02-25T01:25:01.845Z,8.48
2023-02-25T01:35:26.087Z,8.73
2023-02-25T01:45:51.072Z,8.83
2023-02-25T01:56:20.533Z,8.84
2023-02-25T02:06:47.747Z,8.67
2023-02-25T02:17:22.071Z,8.51
2023-02-25T02:28:26.821Z,8.36
2023-02-25T02:39:03.629Z,8.08
2023-02-25T02:49:36.269Z,7.72
2023-02-25T03:00:13.059Z,7.29
2023-02-25T03:10:37.789Z,6.79
2023-02-25T03:21:06.507Z,6.38
2023-02-25T03:31:34.800Z,6.19
2023-02-25T03:42:01.706Z,6.02
2023-02-25T03:52:27.740Z,5.90
2023-02-25T04:02:52.886Z,5.77
2023-02-25T04:13:20.175Z,5.61
2023-02-25T04:23:44.978Z,5.37
2023-02-25T04:34:09.525Z,5.32
2023-02-25T04:44:34.383Z,5.42
2023-02-25T04:54:59.515Z,5.52
2023-02-25T05:05:24.391Z,5.72
2023-02-25T05:15:49.538Z,5.55
2023-02-25T05:26:16.765Z,5.40
2023-02-25T05:36:41.909Z,5.66
2023-02-25T05:47:07.218Z,5.99
2023-02-25T05:57:32.205Z,6.09
2023-02-25T06:07:57.414Z,6.26
2023-02-25T06:18:22.607Z,6.36
2023-02-25T06:28:46.902Z,6.38
2023-02-25T06:39:11.352Z,6.30
2023-02-25T06:49:35.764Z,6.06
2023-02-25T07:00:00.593Z,5.75
2023-02-25T07:10:25.157Z,5.49
2023-02-25T07:20:49.497Z,5.30
2023-02-25T07:31:16.687Z,5.19
2023-02-25T07:41:41.659Z,5.12
2023-02-25T07:52:07.018Z,5.10
2023-02-25T08:02:33.074Z,5.14
2023-02-25T08:12:58.155Z,5.19
2023-02-25T08:23:22.956Z,5.31
2023-02-25T08:33:52.017Z,5.48
2023-02-25T08:44:15.532Z,5.62
2023-02-25T08:54:40.028Z,5.68
2023-02-25T09:05:06.383Z,5.68
2023-02-25T09:15:32.119Z,5.70
2023-02-25T09:25:56.916Z,5.88
2023-02-25T09:36:22.614Z,5.85
2023-02-25T09:46:51.203Z,5.75
2023-02-25T09:57:19.392Z,5.70
2023-02-25T10:07:56.407Z,5.61
2023-02-25T10:18:40.843Z,5.46
2023-02-25T10:29:12.585Z,5.42
2023-02-25T10:39:37.178Z,5.43
2023-02-25T10:50:17.505Z,5.36
2023-02-25T11:00:43.798Z,5.26
2023-02-25T11:11:17.447Z,5.03
2023-02-25T11:21:42.053Z,4.95
2023-02-25T11:32:13.645Z,4.87
2023-02-25T11:42:38.047Z,4.83
2023-02-25T11:53:15.334Z,5.07
2023-02-25T12:04:02.261Z,5.29
2023-02-25T12:15:18.239Z,5.16
2023-02-25T12:25:50.798Z,5.05
2023-02-25T12:36:30.622Z,5.01
2023-02-25T12:47:10.798Z,5.01
2023-02-25T12:57:57.931Z,5.11
2023-02-25T13:09:01.728Z,5.19
2023-02-25T13:19:56.442Z,5.08
2023-02-25T13:30:34.133Z,4.95
2023-02-25T13:41:24.927Z,4.87
2023-02-25T13:52:08.979Z,4.79
2023-02-25T14:03:03.064Z,4.74
2023-02-25T14:13:47.078Z,4.31
2023-02-25T14:24:18.952Z,4.05
2023-02-25T14:34:55.564Z,3.86
2023-02-25T14:45:25.959Z,3.72
2023-02-25T14:56:49.585Z,3.68
2023-02-25T15:07:33.249Z,3.69
2023-02-25T15:18:34.916Z,3.62
2023-02-25T15:29:00.809Z,3.43
2023-02-25T15:39:50.323Z,3.40
2023-02-25T15:50:55.135Z,3.46
2023-02-25T16:01:39.682Z,3.48
2023-02-25T16:12:07.421Z,3.36
2023-02-25T16:22:32.020Z,3.31
2023-02-25T16:33:07.216Z,3.26
2023-02-25T16:43:37.330Z,3.23
2023-02-25T16:54:09.638Z,3.20
2023-02-25T17:04:35.656Z,3.16
2023-02-25T17:15:02.271Z,3.15
2023-02-25T17:25:32.640Z,3.14
2023-02-25T17:36:01.776Z,3.12
2023-02-25T17:46:28.539Z,3.06
2023-02-25T17:56:58.184Z,3.07
2023-02-25T18:07:32.030Z,3.03
2023-02-25T18:17:58.723Z,3.00
2023-02-25T18:28:23.499Z,3.07
2023-02-25T18:38:48.469Z,3.13
2023-02-25T18:49:13.307Z,3.08
2023-02-25T18:59:38.124Z,3.00
2023-02-25T19:10:03.399Z,2.97
2023-02-25T19:20:29.279Z,2.98
2023-02-25T19:30:54.274Z,3.00
2023-02-25T19:41:19.714Z,3.04
2023-02-25T19:51:52.940Z,3.05
2023-02-25T20:02:17.822Z,2.99
2023-02-25T20:12:44.867Z,2.84
2023-02-25T20:23:09.654Z,2.77
2023-02-25T20:33:35.911Z,2.79
2023-02-25T20:44:00.537Z,2.85
2023-02-25T20:54:24.885Z,2.87
2023-02-25T21:04:49.832Z,2.71
2023-02-25T21:15:14.804Z,2.60
2023-02-25T21:25:39.687Z,2.57
2023-02-25T21:36:06.103Z,2.53
2023-02-25T21:46:30.485Z,2.43
2023-02-25T21:56:55.306Z,2.37
2023-02-25T22:07:20.265Z,2.38
2023-02-25T22:17:45.387Z,2.51
2023-02-25T22:28:10.154Z,2.65
2023-02-25T22:38:36.261Z,2.58
2023-02-25T22:49:01.208Z,2.49
2023-02-25T22:59:25.632Z,2.59
2023-02-25T23:09:50.455Z,2.68
2023-02-25T23:20:15.663Z,2.69
2023-02-25T23:30:40.578Z,2.62
2023-02-25T23:41:06.574Z,2.66
2023-02-25T23:51:31.363Z,2.62
